sensor_id;sensor_type;location;lat;lon;timestamp;P1;durP1;ratioP1;P2;durP2;ratioP2
60233;SDS011;49514;43.538;-5.708;2022-10-22T00:02:05;41.10;;;8.70;;
60233;SDS011;49514;43.538;-5.708;2022-10-22T00:04:33;30.58;;;7.53;;
60233;SDS011;49514;43.538;-5.708;2022-10-22T00:06:59;26.20;;;6.50;;
60233;SDS011;49514;43.538;-5.708;2022-10-22T00:09:26;21.42;;;5.80;;
60233;SDS011;49514;43.538;-5.708;2022-10-22T00:11:53;20.13;;;5.45;;
60233;SDS011;49514;43.538;-5.708;2022-10-22T00:14:19;20.75;;;4.78;;
60233;SDS011;49514;43.538;-5.708;2022-10-22T00:16:46;11.20;;;3.63;;
60233;SDS011;49514;43.538;-5.708;2022-10-22T00:19:13;15.80;;;5.07;;
60233;SDS011;49514;43.538;-5.708;2022-10-22T00:21:40;13.45;;;4.10;;
60233;SDS011;49514;43.538;-5.708;2022-10-22T00:24:06;17.17;;;3.92;;
60233;SDS011;49514;43.538;-5.708;2022-10-22T00:26:33;18.10;;;4.65;;
60233;SDS011;49514;43.538;-5.708;2022-10-22T00:29:00;14.93;;;4.60;;
60233;SDS011;49514;43.538;-5.708;2022-10-22T00:31:27;30.90;;;6.15;;
60233;SDS011;49514;43.538;-5.708;2022-10-22T00:33:53;30.88;;;7.72;;
60233;SDS011;49514;43.538;-5.708;2022-10-22T00:36:20;37.20;;;7.47;;
60233;SDS011;49514;43.538;-5.708;2022-10-22T00:38:46;54.15;;;8.85;;
60233;SDS011;49514;43.538;-5.708;2022-10-22T00:41:13;46.60;;;9.18;;
60233;SDS011;49514;43.538;-5.708;2022-10-22T00:43:59;54.40;;;8.38;;
60233;SDS011;49514;43.538;-5.708;2022-10-22T00:46:28;53.63;;;6.90;;
60233;SDS011;49514;43.538;-5.708;2022-10-22T00:48:56;49.40;;;7.63;;
60233;SDS011;49514;43.538;-5.708;2022-10-22T00:51:26;44.47;;;7.63;;
60233;SDS011;49514;43.538;-5.708;2022-10-22T00:53:59;41.28;;;6.55;;
60233;SDS011;49514;43.538;-5.708;2022-10-22T00:56:29;36.03;;;6.00;;
60233;SDS011;49514;43.538;-5.708;2022-10-22T00:58:57;47.78;;;6.45;;
60233;SDS011;49514;43.538;-5.708;2022-10-22T01:01:29;44.63;;;6.65;;
60233;SDS011;49514;43.538;-5.708;2022-10-22T01:03:57;33.17;;;6.18;;
60233;SDS011;49514;43.538;-5.708;2022-10-22T01:06:26;47.67;;;6.90;;
60233;SDS011;49514;43.538;-5.708;2022-10-22T01:12:02;39.78;;;6.70;;
60233;SDS011;49514;43.538;-5.708;2022-10-22T01:29:08;36.90;;;6.70;;
60233;SDS011;49514;43.538;-5.708;2022-10-22T01:31:58;44.90;;;7.22;;
60233;SDS011;49514;43.538;-5.708;2022-10-22T01:34:30;52.65;;;8.38;;
60233;SDS011;49514;43.538;-5.708;2022-10-22T01:36:58;55.22;;;8.93;;
60233;SDS011;49514;43.538;-5.708;2022-10-22T01:39:26;62.15;;;7.72;;
60233;SDS011;49514;43.538;-5.708;2022-10-22T01:41:56;60.30;;;7.88;;
60233;SDS011;49514;43.538;-5.708;2022-10-22T01:44:30;55.53;;;7.10;;
60233;SDS011;49514;43.538;-5.708;2022-10-22T02:00:36;49.55;;;7.32;;
60233;SDS011;49514;43.538;-5.708;2022-10-22T02:03:07;45.40;;;7.05;;
60233;SDS011;49514;43.538;-5.708;2022-10-22T02:05:48;38.58;;;6.78;;
60233;SDS011;49514;43.538;-5.708;2022-10-22T02:08:23;42.05;;;7.38;;
60233;SDS011;49514;43.538;-5.708;2022-10-22T02:10:58;36.28;;;5.88;;
60233;SDS011;49514;43.538;-5.708;2022-10-22T02:13:27;36.22;;;5.95;;
60233;SDS011;49514;43.538;-5.708;2022-10-22T02:15:55;42.65;;;7.22;;
60233;SDS011;49514;43.538;-5.708;2022-10-22T02:18:25;53.15;;;8.27;;
60233;SDS011;49514;43.538;-5.708;2022-10-22T02:20:55;50.78;;;7.55;;
60233;SDS011;49514;43.538;-5.708;2022-10-22T02:23:24;81.38;;;10.15;;
60233;SDS011;49514;43.538;-5.708;2022-10-22T02:25:53;82.05;;;10.88;;
60233;SDS011;49514;43.538;-5.708;2022-10-22T02:31:02;115.25;;;11.48;;
60233;SDS011;49514;43.538;-5.708;2022-10-22T02:33:32;56.40;;;8.80;;
60233;SDS011;49514;43.538;-5.708;2022-10-22T02:36:01;40.40;;;6.97;;
60233;SDS011;49514;43.538;-5.708;2022-10-22T02:38:28;48.08;;;7.30;;
60233;SDS011;49514;43.538;-5.708;2022-10-22T02:40:56;47.80;;;8.45;;
60233;SDS011;49514;43.538;-5.708;2022-10-22T02:43:23;58.90;;;11.25;;
60233;SDS011;49514;43.538;-5.708;2022-10-22T02:45:50;53.90;;;9.98;;
60233;SDS011;49514;43.538;-5.708;2022-10-22T02:48:17;54.60;;;9.38;;
60233;SDS011;49514;43.538;-5.708;2022-10-22T02:50:44;70.55;;;9.98;;
60233;SDS011;49514;43.538;-5.708;2022-10-22T02:53:11;45.05;;;8.30;;
60233;SDS011;49514;43.538;-5.708;2022-10-22T02:55:38;35.47;;;6.93;;
60233;SDS011;49514;43.538;-5.708;2022-10-22T02:58:04;19.20;;;4.32;;
60233;SDS011;49514;43.538;-5.708;2022-10-22T03:00:31;22.02;;;4.60;;
60233;SDS011;49514;43.538;-5.708;2022-10-22T03:02:58;35.08;;;6.32;;
60233;SDS011;49514;43.538;-5.708;2022-10-22T03:05:25;31.38;;;5.93;;
60233;SDS011;49514;43.538;-5.708;2022-10-22T03:07:52;36.95;;;6.30;;
60233;SDS011;49514;43.538;-5.708;2022-10-22T03:10:18;41.40;;;7.45;;
60233;SDS011;49514;43.538;-5.708;2022-10-22T03:12:45;32.97;;;6.03;;
60233;SDS011;49514;43.538;-5.708;2022-10-22T03:15:13;20.33;;;4.00;;
60233;SDS011;49514;43.538;-5.708;2022-10-22T03:17:40;13.27;;;3.53;;
60233;SDS011;49514;43.538;-5.708;2022-10-22T03:20:07;14.68;;;4.05;;
60233;SDS011;49514;43.538;-5.708;2022-10-22T03:22:34;19.75;;;4.40;;
60233;SDS011;49514;43.538;-5.708;2022-10-22T03:25:05;25.02;;;4.50;;
60233;SDS011;49514;43.538;-5.708;2022-10-22T03:27:34;24.98;;;5.15;;
60233;SDS011;49514;43.538;-5.708;2022-10-22T03:30:02;23.70;;;5.30;;
60233;SDS011;49514;43.538;-5.708;2022-10-22T03:32:29;43.03;;;5.68;;
60233;SDS011;49514;43.538;-5.708;2022-10-22T03:34:56;40.03;;;6.53;;
60233;SDS011;49514;43.538;-5.708;2022-10-22T03:37:23;42.05;;;7.38;;
60233;SDS011;49514;43.538;-5.708;2022-10-22T03:39:50;48.33;;;6.35;;
60233;SDS011;49514;43.538;-5.708;2022-10-22T03:42:17;67.45;;;7.57;;
60233;SDS011;49514;43.538;-5.708;2022-10-22T03:44:44;56.33;;;7.38;;
60233;SDS011;49514;43.538;-5.708;2022-10-22T03:47:11;45.22;;;6.65;;
60233;SDS011;49514;43.538;-5.708;2022-10-22T03:49:38;54.28;;;7.30;;
60233;SDS011;49514;43.538;-5.708;2022-10-22T03:52:05;60.15;;;8.02;;
60233;SDS011;49514;43.538;-5.708;2022-10-22T03:54:32;45.85;;;7.18;;
60233;SDS011;49514;43.538;-5.708;2022-10-22T03:56:59;49.92;;;7.05;;
60233;SDS011;49514;43.538;-5.708;2022-10-22T03:59:26;56.58;;;7.60;;
60233;SDS011;49514;43.538;-5.708;2022-10-22T04:01:53;97.43;;;9.77;;
60233;SDS011;49514;43.538;-5.708;2022-10-22T04:04:20;67.68;;;9.40;;
60233;SDS011;49514;43.538;-5.708;2022-10-22T04:06:47;55.95;;;7.85;;
60233;SDS011;49514;43.538;-5.708;2022-10-22T04:09:14;64.45;;;7.53;;
60233;SDS011;49514;43.538;-5.708;2022-10-22T04:11:40;55.60;;;8.07;;
60233;SDS011;49514;43.538;-5.708;2022-10-22T04:14:07;63.20;;;7.28;;
60233;SDS011;49514;43.538;-5.708;2022-10-22T04:16:34;38.75;;;6.00;;
60233;SDS011;49514;43.538;-5.708;2022-10-22T04:19:02;61.15;;;7.65;;
60233;SDS011;49514;43.538;-5.708;2022-10-22T04:21:29;91.50;;;9.15;;
60233;SDS011;49514;43.538;-5.708;2022-10-22T04:23:55;66.20;;;7.80;;
60233;SDS011;49514;43.538;-5.708;2022-10-22T04:26:22;64.85;;;8.00;;
60233;SDS011;49514;43.538;-5.708;2022-10-22T04:28:51;60.55;;;7.32;;
60233;SDS011;49514;43.538;-5.708;2022-10-22T04:31:19;67.40;;;7.05;;
60233;SDS011;49514;43.538;-5.708;2022-10-22T04:33:46;68.30;;;7.97;;
60233;SDS011;49514;43.538;-5.708;2022-10-22T04:36:17;36.13;;;5.82;;
60233;SDS011;49514;43.538;-5.708;2022-10-22T04:38:45;41.80;;;6.60;;
60233;SDS011;49514;43.538;-5.708;2022-10-22T04:41:16;46.28;;;6.78;;
60233;SDS011;49514;43.538;-5.708;2022-10-22T04:43:43;50.58;;;6.90;;
60233;SDS011;49514;43.538;-5.708;2022-10-22T04:46:10;45.05;;;6.47;;
60233;SDS011;49514;43.538;-5.708;2022-10-22T04:48:39;44.08;;;5.97;;
60233;SDS011;49514;43.538;-5.708;2022-10-22T04:51:07;44.22;;;5.80;;
60233;SDS011;49514;43.538;-5.708;2022-10-22T04:53:34;33.40;;;5.30;;
60233;SDS011;49514;43.538;-5.708;2022-10-22T04:58:34;29.73;;;5.20;;
60233;SDS011;49514;43.538;-5.708;2022-10-22T05:01:07;36.67;;;4.85;;
60233;SDS011;49514;43.538;-5.708;2022-10-22T05:03:35;27.85;;;4.70;;
60233;SDS011;49514;43.538;-5.708;2022-10-22T05:06:02;23.23;;;4.80;;
60233;SDS011;49514;43.538;-5.708;2022-10-22T05:08:29;26.13;;;4.65;;
60233;SDS011;49514;43.538;-5.708;2022-10-22T05:10:56;28.17;;;5.18;;
60233;SDS011;49514;43.538;-5.708;2022-10-22T05:13:23;24.17;;;5.18;;
60233;SDS011;49514;43.538;-5.708;2022-10-22T05:15:50;21.75;;;4.28;;
60233;SDS011;49514;43.538;-5.708;2022-10-22T05:18:16;21.33;;;4.60;;
60233;SDS011;49514;43.538;-5.708;2022-10-22T05:20:43;19.88;;;4.55;;
60233;SDS011;49514;43.538;-5.708;2022-10-22T05:23:10;17.23;;;3.60;;
60233;SDS011;49514;43.538;-5.708;2022-10-22T05:25:37;23.75;;;4.40;;
60233;SDS011;49514;43.538;-5.708;2022-10-22T05:28:04;19.27;;;3.80;;
60233;SDS011;49514;43.538;-5.708;2022-10-22T05:30:31;17.08;;;3.47;;
60233;SDS011;49514;43.538;-5.708;2022-10-22T05:32:58;16.52;;;3.53;;
60233;SDS011;49514;43.538;-5.708;2022-10-22T05:35:25;15.38;;;3.65;;
60233;SDS011;49514;43.538;-5.708;2022-10-22T05:37:51;9.32;;;2.95;;
60233;SDS011;49514;43.538;-5.708;2022-10-22T05:40:18;6.75;;;2.55;;
60233;SDS011;49514;43.538;-5.708;2022-10-22T05:42:45;8.43;;;3.00;;
60233;SDS011;49514;43.538;-5.708;2022-10-22T05:45:12;7.43;;;2.22;;
60233;SDS011;49514;43.538;-5.708;2022-10-22T05:47:38;9.68;;;2.40;;
60233;SDS011;49514;43.538;-5.708;2022-10-22T05:50:05;11.32;;;2.83;;
60233;SDS011;49514;43.538;-5.708;2022-10-22T05:52:32;8.50;;;2.80;;
60233;SDS011;49514;43.538;-5.708;2022-10-22T05:54:59;7.00;;;2.55;;
60233;SDS011;49514;43.538;-5.708;2022-10-22T05:57:25;7.95;;;2.58;;
60233;SDS011;49514;43.538;-5.708;2022-10-22T05:59:52;7.57;;;2.30;;
60233;SDS011;49514;43.538;-5.708;2022-10-22T06:02:18;5.75;;;2.30;;
60233;SDS011;49514;43.538;-5.708;2022-10-22T06:04:45;7.35;;;3.72;;
60233;SDS011;49514;43.538;-5.708;2022-10-22T06:07:13;7.47;;;4.10;;
60233;SDS011;49514;43.538;-5.708;2022-10-22T06:09:40;10.73;;;4.20;;
60233;SDS011;49514;43.538;-5.708;2022-10-22T06:12:07;13.45;;;5.72;;
60233;SDS011;49514;43.538;-5.708;2022-10-22T06:14:35;8.80;;;5.28;;
60233;SDS011;49514;43.538;-5.708;2022-10-22T06:17:02;12.82;;;4.97;;
60233;SDS011;49514;43.538;-5.708;2022-10-22T06:19:29;9.82;;;4.55;;
60233;SDS011;49514;43.538;-5.708;2022-10-22T06:21:56;13.85;;;4.78;;
60233;SDS011;49514;43.538;-5.708;2022-10-22T06:24:23;12.70;;;4.90;;
60233;SDS011;49514;43.538;-5.708;2022-10-22T06:26:50;8.07;;;3.80;;
60233;SDS011;49514;43.538;-5.708;2022-10-22T06:29:17;8.23;;;3.75;;
60233;SDS011;49514;43.538;-5.708;2022-10-22T06:31:43;8.63;;;4.05;;
60233;SDS011;49514;43.538;-5.708;2022-10-22T06:34:11;6.32;;;3.40;;
60233;SDS011;49514;43.538;-5.708;2022-10-22T06:36:39;6.13;;;2.50;;
60233;SDS011;49514;43.538;-5.708;2022-10-22T06:39:09;5.40;;;2.42;;
60233;SDS011;49514;43.538;-5.708;2022-10-22T06:41:37;7.60;;;2.65;;
60233;SDS011;49514;43.538;-5.708;2022-10-22T06:44:04;7.57;;;2.78;;
60233;SDS011;49514;43.538;-5.708;2022-10-22T06:46:30;6.45;;;2.40;;
60233;SDS011;49514;43.538;-5.708;2022-10-22T06:48:59;4.15;;;2.20;;
60233;SDS011;49514;43.538;-5.708;2022-10-22T06:51:27;5.43;;;2.50;;
60233;SDS011;49514;43.538;-5.708;2022-10-22T06:53:55;6.30;;;2.20;;
60233;SDS011;49514;43.538;-5.708;2022-10-22T06:56:24;10.32;;;2.13;;
60233;SDS011;49514;43.538;-5.708;2022-10-22T06:58:53;4.15;;;2.00;;
60233;SDS011;49514;43.538;-5.708;2022-10-22T07:01:21;4.07;;;2.08;;
60233;SDS011;49514;43.538;-5.708;2022-10-22T07:03:53;5.93;;;2.00;;
60233;SDS011;49514;43.538;-5.708;2022-10-22T07:06:20;6.45;;;2.35;;
60233;SDS011;49514;43.538;-5.708;2022-10-22T07:08:48;4.15;;;1.88;;
60233;SDS011;49514;43.538;-5.708;2022-10-22T07:11:16;6.10;;;2.15;;
60233;SDS011;49514;43.538;-5.708;2022-10-22T07:13:45;4.55;;;1.75;;
60233;SDS011;49514;43.538;-5.708;2022-10-22T07:16:13;3.47;;;1.30;;
60233;SDS011;49514;43.538;-5.708;2022-10-22T07:18:41;7.00;;;2.15;;
60233;SDS011;49514;43.538;-5.708;2022-10-22T07:21:09;4.22;;;1.50;;
60233;SDS011;49514;43.538;-5.708;2022-10-22T07:23:37;3.17;;;1.60;;
60233;SDS011;49514;43.538;-5.708;2022-10-22T07:26:04;2.75;;;1.35;;
60233;SDS011;49514;43.538;-5.708;2022-10-22T07:28:33;3.20;;;1.33;;
60233;SDS011;49514;43.538;-5.708;2022-10-22T07:31:01;4.38;;;1.40;;
60233;SDS011;49514;43.538;-5.708;2022-10-22T07:33:29;3.92;;;1.60;;
60233;SDS011;49514;43.538;-5.708;2022-10-22T07:35:56;5.57;;;1.63;;
60233;SDS011;49514;43.538;-5.708;2022-10-22T07:38:25;4.03;;;1.38;;
60233;SDS011;49514;43.538;-5.708;2022-10-22T07:40:52;3.15;;;1.50;;
60233;SDS011;49514;43.538;-5.708;2022-10-22T07:43:19;3.72;;;1.42;;
60233;SDS011;49514;43.538;-5.708;2022-10-22T07:45:46;3.83;;;1.40;;
60233;SDS011;49514;43.538;-5.708;2022-10-22T07:48:14;4.95;;;1.80;;
60233;SDS011;49514;43.538;-5.708;2022-10-22T07:50:41;5.07;;;1.70;;
60233;SDS011;49514;43.538;-5.708;2022-10-22T07:53:08;4.53;;;1.60;;
60233;SDS011;49514;43.538;-5.708;2022-10-22T07:55:35;7.40;;;1.95;;
60233;SDS011;49514;43.538;-5.708;2022-10-22T07:58:02;5.07;;;1.60;;
60233;SDS011;49514;43.538;-5.708;2022-10-22T08:00:30;4.57;;;1.65;;
60233;SDS011;49514;43.538;-5.708;2022-10-22T08:02:57;8.40;;;2.00;;
60233;SDS011;49514;43.538;-5.708;2022-10-22T08:05:24;4.38;;;1.52;;
60233;SDS011;49514;43.538;-5.708;2022-10-22T08:07:51;5.07;;;1.52;;
60233;SDS011;49514;43.538;-5.708;2022-10-22T08:10:18;6.22;;;1.70;;
60233;SDS011;49514;43.538;-5.708;2022-10-22T08:12:45;5.75;;;1.70;;
60233;SDS011;49514;43.538;-5.708;2022-10-22T08:15:11;3.90;;;1.67;;
60233;SDS011;49514;43.538;-5.708;2022-10-22T08:17:38;5.97;;;1.98;;
60233;SDS011;49514;43.538;-5.708;2022-10-22T08:20:05;4.32;;;1.55;;
60233;SDS011;49514;43.538;-5.708;2022-10-22T08:22:32;5.38;;;1.70;;
60233;SDS011;49514;43.538;-5.708;2022-10-22T08:24:59;5.72;;;1.65;;
60233;SDS011;49514;43.538;-5.708;2022-10-22T08:27:26;9.95;;;1.70;;
60233;SDS011;49514;43.538;-5.708;2022-10-22T08:29:53;11.82;;;1.92;;
60233;SDS011;49514;43.538;-5.708;2022-10-22T08:32:20;5.22;;;1.42;;
60233;SDS011;49514;43.538;-5.708;2022-10-22T08:34:47;5.20;;;1.70;;
60233;SDS011;49514;43.538;-5.708;2022-10-22T08:37:14;3.90;;;1.50;;
60233;SDS011;49514;43.538;-5.708;2022-10-22T08:39:42;4.10;;;1.40;;
60233;SDS011;49514;43.538;-5.708;2022-10-22T08:45:02;7.47;;;1.95;;
60233;SDS011;49514;43.538;-5.708;2022-10-22T08:50:13;5.68;;;2.55;;
60233;SDS011;49514;43.538;-5.708;2022-10-22T08:52:45;9.27;;;3.00;;
60233;SDS011;49514;43.538;-5.708;2022-10-22T08:55:18;8.07;;;1.92;;
60233;SDS011;49514;43.538;-5.708;2022-10-22T09:00:35;10.23;;;1.95;;
60233;SDS011;49514;43.538;-5.708;2022-10-22T09:03:28;6.60;;;1.85;;
60233;SDS011;49514;43.538;-5.708;2022-10-22T09:06:11;5.15;;;1.95;;
60233;SDS011;49514;43.538;-5.708;2022-10-22T09:08:53;5.35;;;2.28;;
60233;SDS011;49514;43.538;-5.708;2022-10-22T09:11:27;5.63;;;1.73;;
60233;SDS011;49514;43.538;-5.708;2022-10-22T09:13:57;9.90;;;2.72;;
60233;SDS011;49514;43.538;-5.708;2022-10-22T09:24:41;6.75;;;2.40;;
60233;SDS011;49514;43.538;-5.708;2022-10-22T09:27:25;8.00;;;2.47;;
60233;SDS011;49514;43.538;-5.708;2022-10-22T09:29:54;8.25;;;2.60;;
60233;SDS011;49514;43.538;-5.708;2022-10-22T09:32:22;7.85;;;2.10;;
60233;SDS011;49514;43.538;-5.708;2022-10-22T09:34:49;7.70;;;2.33;;
60233;SDS011;49514;43.538;-5.708;2022-10-22T09:37:22;7.93;;;2.17;;
60233;SDS011;49514;43.538;-5.708;2022-10-22T09:39:51;12.40;;;2.58;;
60233;SDS011;49514;43.538;-5.708;2022-10-22T09:42:21;11.10;;;2.55;;
60233;SDS011;49514;43.538;-5.708;2022-10-22T09:44:57;6.50;;;1.90;;
60233;SDS011;49514;43.538;-5.708;2022-10-22T09:47:27;5.28;;;2.20;;
60233;SDS011;49514;43.538;-5.708;2022-10-22T09:55:56;13.88;;;4.15;;
60233;SDS011;49514;43.538;-5.708;2022-10-22T09:58:25;9.52;;;3.20;;
60233;SDS011;49514;43.538;-5.708;2022-10-22T10:00:54;10.93;;;3.63;;
60233;SDS011;49514;43.538;-5.708;2022-10-22T10:03:24;13.50;;;3.40;;
60233;SDS011;49514;43.538;-5.708;2022-10-22T10:05:54;14.23;;;3.65;;
60233;SDS011;49514;43.538;-5.708;2022-10-22T10:08:23;8.90;;;2.75;;
60233;SDS011;49514;43.538;-5.708;2022-10-22T10:59:14;2.95;;;1.00;;
60233;SDS011;49514;43.538;-5.708;2022-10-22T11:07:51;5.93;;;2.00;;
60233;SDS011;49514;43.538;-5.708;2022-10-22T12:08:19;0.77;;;0.60;;
60233;SDS011;49514;43.538;-5.708;2022-10-22T12:10:50;2.95;;;0.60;;
60233;SDS011;49514;43.538;-5.708;2022-10-22T13:39:41;15.13;;;4.47;;
60233;SDS011;49514;43.538;-5.708;2022-10-22T13:42:11;6.28;;;1.70;;
60233;SDS011;49514;43.538;-5.708;2022-10-22T13:44:38;1.77;;;0.20;;
60233;SDS011;49514;43.538;-5.708;2022-10-22T13:52:27;4.13;;;0.40;;
60233;SDS011;49514;43.538;-5.708;2022-10-22T13:54:57;1.25;;;1.00;;
60233;SDS011;49514;43.538;-5.708;2022-10-22T13:57:23;2.15;;;0.22;;
60233;SDS011;49514;43.538;-5.708;2022-10-22T13:59:50;1.23;;;0.30;;
60233;SDS011;49514;43.538;-5.708;2022-10-22T14:24:38;2.83;;;0.40;;
60233;SDS011;49514;43.538;-5.708;2022-10-22T14:41:43;0.85;;;0.70;;
60233;SDS011;49514;43.538;-5.708;2022-10-22T14:51:35;3.10;;;0.68;;
60233;SDS011;49514;43.538;-5.708;2022-10-22T15:21:03;1.30;;;0.60;;
60233;SDS011;49514;43.538;-5.708;2022-10-22T15:30:55;0.45;;;0.35;;
60233;SDS011;49514;43.538;-5.708;2022-10-22T15:33:23;0.85;;;0.40;;
60233;SDS011;49514;43.538;-5.708;2022-10-22T15:43:10;0.93;;;0.60;;
60233;SDS011;49514;43.538;-5.708;2022-10-22T15:45:37;1.50;;;0.60;;
60233;SDS011;49514;43.538;-5.708;2022-10-22T15:48:04;0.52;;;0.30;;
60233;SDS011;49514;43.538;-5.708;2022-10-22T15:50:31;0.40;;;0.30;;
60233;SDS011;49514;43.538;-5.708;2022-10-22T15:53:03;2.35;;;0.60;;
60233;SDS011;49514;43.538;-5.708;2022-10-22T15:55:30;2.53;;;0.50;;
60233;SDS011;49514;43.538;-5.708;2022-10-22T15:57:57;0.75;;;0.20;;
60233;SDS011;49514;43.538;-5.708;2022-10-22T16:00:25;0.63;;;0.40;;
60233;SDS011;49514;43.538;-5.708;2022-10-22T16:02:52;0.47;;;0.20;;
60233;SDS011;49514;43.538;-5.708;2022-10-22T16:05:20;0.80;;;0.30;;
60233;SDS011;49514;43.538;-5.708;2022-10-22T16:07:46;0.50;;;0.30;;
60233;SDS011;49514;43.538;-5.708;2022-10-22T16:10:13;2.22;;;1.08;;
60233;SDS011;49514;43.538;-5.708;2022-10-22T16:12:40;0.88;;;0.70;;
60233;SDS011;49514;43.538;-5.708;2022-10-22T16:15:07;2.85;;;1.10;;
60233;SDS011;49514;43.538;-5.708;2022-10-22T16:17:35;0.95;;;0.60;;
60233;SDS011;49514;43.538;-5.708;2022-10-22T16:20:02;2.63;;;0.88;;
60233;SDS011;49514;43.538;-5.708;2022-10-22T16:22:29;1.15;;;0.63;;
60233;SDS011;49514;43.538;-5.708;2022-10-22T16:24:55;1.80;;;1.17;;
60233;SDS011;49514;43.538;-5.708;2022-10-22T16:27:22;1.73;;;0.90;;
60233;SDS011;49514;43.538;-5.708;2022-10-22T16:29:49;1.50;;;1.10;;
60233;SDS011;49514;43.538;-5.708;2022-10-22T16:32:17;3.28;;;1.33;;
60233;SDS011;49514;43.538;-5.708;2022-10-22T16:34:43;3.08;;;1.25;;
60233;SDS011;49514;43.538;-5.708;2022-10-22T16:37:10;1.95;;;0.82;;
60233;SDS011;49514;43.538;-5.708;2022-10-22T16:39:38;0.75;;;0.50;;
60233;SDS011;49514;43.538;-5.708;2022-10-22T16:42:05;1.38;;;1.05;;
60233;SDS011;49514;43.538;-5.708;2022-10-22T16:44:32;1.45;;;1.13;;
60233;SDS011;49514;43.538;-5.708;2022-10-22T16:46:58;0.98;;;0.70;;
60233;SDS011;49514;43.538;-5.708;2022-10-22T16:49:26;1.20;;;0.52;;
60233;SDS011;49514;43.538;-5.708;2022-10-22T16:51:53;1.60;;;0.70;;
60233;SDS011;49514;43.538;-5.708;2022-10-22T16:54:19;1.38;;;0.95;;
60233;SDS011;49514;43.538;-5.708;2022-10-22T16:56:46;1.10;;;0.70;;
60233;SDS011;49514;43.538;-5.708;2022-10-22T16:59:13;2.45;;;0.82;;
60233;SDS011;49514;43.538;-5.708;2022-10-22T17:01:40;2.72;;;0.95;;
60233;SDS011;49514;43.538;-5.708;2022-10-22T17:04:07;2.72;;;0.88;;
60233;SDS011;49514;43.538;-5.708;2022-10-22T17:06:33;1.67;;;0.70;;
60233;SDS011;49514;43.538;-5.708;2022-10-22T17:09:00;2.85;;;0.93;;
60233;SDS011;49514;43.538;-5.708;2022-10-22T17:11:27;18.75;;;1.85;;
60233;SDS011;49514;43.538;-5.708;2022-10-22T17:14:00;6.22;;;1.00;;
60233;SDS011;49514;43.538;-5.708;2022-10-22T17:16:27;3.92;;;0.98;;
60233;SDS011;49514;43.538;-5.708;2022-10-22T17:18:55;8.52;;;1.52;;
60233;SDS011;49514;43.538;-5.708;2022-10-22T17:21:23;8.30;;;1.30;;
60233;SDS011;49514;43.538;-5.708;2022-10-22T17:23:54;10.65;;;0.90;;
60233;SDS011;49514;43.538;-5.708;2022-10-22T17:26:21;6.82;;;1.00;;
60233;SDS011;49514;43.538;-5.708;2022-10-22T17:28:49;7.28;;;1.30;;
60233;SDS011;49514;43.538;-5.708;2022-10-22T17:31:28;9.32;;;1.70;;
60233;SDS011;49514;43.538;-5.708;2022-10-22T17:33:57;8.50;;;1.02;;
60233;SDS011;49514;43.538;-5.708;2022-10-22T17:36:25;7.15;;;1.27;;
60233;SDS011;49514;43.538;-5.708;2022-10-22T17:38:53;6.28;;;1.30;;
60233;SDS011;49514;43.538;-5.708;2022-10-22T17:41:23;6.18;;;1.33;;
60233;SDS011;49514;43.538;-5.708;2022-10-22T17:43:50;8.60;;;1.00;;
60233;SDS011;49514;43.538;-5.708;2022-10-22T17:46:19;9.80;;;1.17;;
60233;SDS011;49514;43.538;-5.708;2022-10-22T17:48:50;5.03;;;0.88;;
60233;SDS011;49514;43.538;-5.708;2022-10-22T17:51:22;8.50;;;1.60;;
60233;SDS011;49514;43.538;-5.708;2022-10-22T17:53:51;7.70;;;1.10;;
60233;SDS011;49514;43.538;-5.708;2022-10-22T17:56:19;4.60;;;0.93;;
60233;SDS011;49514;43.538;-5.708;2022-10-22T17:58:47;7.75;;;1.20;;
60233;SDS011;49514;43.538;-5.708;2022-10-22T18:01:21;5.78;;;1.40;;
60233;SDS011;49514;43.538;-5.708;2022-10-22T18:03:59;9.50;;;1.65;;
60233;SDS011;49514;43.538;-5.708;2022-10-22T18:06:29;6.35;;;1.38;;
60233;SDS011;49514;43.538;-5.708;2022-10-22T18:08:56;7.65;;;1.38;;
60233;SDS011;49514;43.538;-5.708;2022-10-22T18:11:24;7.55;;;1.30;;
60233;SDS011;49514;43.538;-5.708;2022-10-22T18:13:54;5.82;;;1.27;;
60233;SDS011;49514;43.538;-5.708;2022-10-22T18:16:22;10.25;;;1.40;;
60233;SDS011;49514;43.538;-5.708;2022-10-22T18:18:50;6.40;;;1.35;;
60233;SDS011;49514;43.538;-5.708;2022-10-22T18:21:18;8.32;;;1.65;;
60233;SDS011;49514;43.538;-5.708;2022-10-22T18:23:45;6.72;;;1.30;;
60233;SDS011;49514;43.538;-5.708;2022-10-22T18:26:12;5.88;;;1.25;;
60233;SDS011;49514;43.538;-5.708;2022-10-22T18:28:40;4.38;;;0.80;;
60233;SDS011;49514;43.538;-5.708;2022-10-22T18:31:08;8.45;;;1.25;;
60233;SDS011;49514;43.538;-5.708;2022-10-22T18:33:37;6.20;;;1.10;;
60233;SDS011;49514;43.538;-5.708;2022-10-22T18:36:05;4.97;;;1.38;;
60233;SDS011;49514;43.538;-5.708;2022-10-22T18:38:34;8.55;;;1.35;;
60233;SDS011;49514;43.538;-5.708;2022-10-22T18:41:04;7.07;;;1.33;;
60233;SDS011;49514;43.538;-5.708;2022-10-22T18:43:32;4.20;;;1.33;;
60233;SDS011;49514;43.538;-5.708;2022-10-22T18:46:00;6.17;;;1.50;;
60233;SDS011;49514;43.538;-5.708;2022-10-22T18:48:26;7.03;;;1.50;;
60233;SDS011;49514;43.538;-5.708;2022-10-22T18:51:01;6.97;;;1.50;;
60233;SDS011;49514;43.538;-5.708;2022-10-22T18:53:33;7.13;;;1.50;;
60233;SDS011;49514;43.538;-5.708;2022-10-22T18:56:05;8.98;;;1.40;;
60233;SDS011;49514;43.538;-5.708;2022-10-22T18:58:40;7.53;;;1.40;;
60233;SDS011;49514;43.538;-5.708;2022-10-22T19:01:10;6.45;;;1.42;;
60233;SDS011;49514;43.538;-5.708;2022-10-22T19:03:39;10.60;;;1.98;;
60233;SDS011;49514;43.538;-5.708;2022-10-22T19:08:34;10.48;;;1.80;;
60233;SDS011;49514;43.538;-5.708;2022-10-22T19:11:06;8.23;;;2.05;;
60233;SDS011;49514;43.538;-5.708;2022-10-22T19:13:34;9.02;;;1.95;;
60233;SDS011;49514;43.538;-5.708;2022-10-22T19:16:02;8.40;;;1.63;;
60233;SDS011;49514;43.538;-5.708;2022-10-22T19:18:30;11.23;;;1.90;;
60233;SDS011;49514;43.538;-5.708;2022-10-22T19:21:00;8.38;;;1.65;;
60233;SDS011;49514;43.538;-5.708;2022-10-22T19:23:27;15.38;;;2.45;;
60233;SDS011;49514;43.538;-5.708;2022-10-22T19:28:32;9.90;;;2.15;;
60233;SDS011;49514;43.538;-5.708;2022-10-22T19:30:59;11.38;;;2.08;;
60233;SDS011;49514;43.538;-5.708;2022-10-22T19:33:26;12.38;;;2.13;;
60233;SDS011;49514;43.538;-5.708;2022-10-22T19:35:53;14.80;;;2.45;;
60233;SDS011;49514;43.538;-5.708;2022-10-22T19:38:19;8.93;;;1.83;;
60233;SDS011;49514;43.538;-5.708;2022-10-22T20:44:21;10.75;;;2.25;;
60233;SDS011;49514;43.538;-5.708;2022-10-22T20:46:49;7.82;;;1.77;;
60233;SDS011;49514;43.538;-5.708;2022-10-22T20:49:16;13.35;;;2.35;;
60233;SDS011;49514;43.538;-5.708;2022-10-22T20:51:45;10.57;;;2.00;;
60233;SDS011;49514;43.538;-5.708;2022-10-22T20:54:12;11.38;;;1.67;;
60233;SDS011;49514;43.538;-5.708;2022-10-22T20:56:40;8.82;;;1.88;;
60233;SDS011;49514;43.538;-5.708;2022-10-22T20:59:07;8.15;;;1.90;;
60233;SDS011;49514;43.538;-5.708;2022-10-22T21:01:38;11.80;;;1.77;;
60233;SDS011;49514;43.538;-5.708;2022-10-22T21:04:09;8.18;;;1.58;;
60233;SDS011;49514;43.538;-5.708;2022-10-22T21:06:37;9.00;;;1.58;;
60233;SDS011;49514;43.538;-5.708;2022-10-22T21:09:05;13.80;;;1.88;;
60233;SDS011;49514;43.538;-5.708;2022-10-22T21:11:32;9.27;;;1.55;;
60233;SDS011;49514;43.538;-5.708;2022-10-22T21:14:00;10.35;;;1.60;;
60233;SDS011;49514;43.538;-5.708;2022-10-22T21:16:27;6.78;;;1.77;;
60233;SDS011;49514;43.538;-5.708;2022-10-22T21:18:54;11.32;;;1.83;;
60233;SDS011;49514;43.538;-5.708;2022-10-22T21:21:21;8.98;;;1.70;;
60233;SDS011;49514;43.538;-5.708;2022-10-22T21:23:48;7.90;;;1.40;;
60233;SDS011;49514;43.538;-5.708;2022-10-22T21:26:17;14.18;;;1.92;;
60233;SDS011;49514;43.538;-5.708;2022-10-22T21:28:46;8.27;;;1.40;;
60233;SDS011;49514;43.538;-5.708;2022-10-22T21:31:14;19.52;;;1.65;;
60233;SDS011;49514;43.538;-5.708;2022-10-22T21:33:51;9.63;;;1.73;;